createdAt,value
2023-02-25T00:01:58.064Z,4.70
2023-02-25T00:04:33.723Z,4.80
2023-02-25T00:07:02.837Z,4.80
2023-02-25T00:09:31.588Z,4.80
2023-02-25T00:11:59.827Z,4.80
2023-02-25T00:14:28.523Z,4.80
2023-02-25T00:16:57.370Z,4.80
2023-02-25T00:19:27.352Z,4.80
2023-02-25T00:21:56.893Z,4.80
2023-02-25T00:24:25.164Z,4.80
2023-02-25T00:26:53.347Z,4.80
2023-02-25T00:29:22.143Z,4.80
2023-02-25T00:31:50.514Z,4.90
2023-02-25T00:34:18.894Z,4.80
2023-02-25T00:36:47.190Z,4.80
2023-02-25T00:39:17.258Z,4.90
2023-02-25T00:41:45.521Z,4.80
2023-02-25T00:44:13.779Z,4.80
2023-02-25T00:46:42.025Z,4.70
2023-02-25T00:49:11.170Z,4.60
2023-02-25T00:51:40.411Z,4.60
2023-02-25T00:54:08.570Z,4.50
2023-02-25T00:56:38.845Z,4.50
2023-02-25T00:59:07.021Z,4.50
2023-02-25T01:01:37.720Z,4.50
2023-02-25T01:04:06.598Z,4.50
2023-02-25T01:06:38.476Z,4.50
2023-02-25T01:09:13.741Z,4.50
2023-02-25T01:11:47.409Z,4.50
2023-02-25T01:14:18.814Z,4.40
2023-02-25T01:16:48.815Z,4.40
2023-02-25T01:19:20.722Z,4.50
2023-02-25T01:21:54.542Z,4.40
2023-02-25T01:24:25.713Z,4.40
2023-02-25T01:27:00.260Z,4.40
2023-02-25T01:29:31.033Z,4.40
2023-02-25T01:32:02.899Z,4.40
2023-02-25T01:34:31.941Z,4.40
2023-02-25T01:37:03.068Z,4.40
2023-02-25T01:39:32.161Z,4.50
2023-02-25T01:42:12.566Z,4.50
2023-02-25T01:45:35.328Z,4.50
2023-02-25T01:48:15.789Z,4.50
2023-02-25T01:50:51.486Z,4.40
2023-02-25T01:53:28.016Z,4.40
2023-02-25T01:56:00.197Z,4.40
2023-02-25T01:58:31.112Z,4.40
2023-02-25T02:00:59.666Z,4.40
2023-02-25T02:03:33.165Z,4.40
2023-02-25T02:06:09.531Z,4.30
2023-02-25T02:08:38.873Z,4.40
2023-02-25T02:11:07.328Z,4.40
2023-02-25T02:13:42.390Z,4.30
2023-02-25T02:16:30.100Z,4.30
2023-02-25T02:19:02.839Z,4.30
2023-02-25T02:21:57.027Z,4.30
2023-02-25T02:25:19.567Z,4.30
2023-02-25T02:28:46.348Z,4.20
2023-02-25T02:31:46.484Z,4.20
2023-02-25T02:34:32.271Z,4.10
2023-02-25T02:37:21.754Z,4.10
2023-02-25T02:40:05.698Z,4.10
2023-02-25T02:42:46.069Z,4.10
2023-02-25T02:45:22.257Z,4.10
2023-02-25T02:47:57.873Z,4.10
2023-02-25T02:50:35.138Z,4.10
2023-02-25T02:53:10.747Z,4.10
2023-02-25T02:55:44.192Z,4.10
2023-02-25T02:58:19.882Z,4.10
2023-02-25T03:00:55.351Z,4.00
2023-02-25T03:03:36.293Z,4.00
2023-02-25T03:06:11.018Z,4.00
2023-02-25T03:08:47.876Z,4.00
2023-02-25T03:11:17.353Z,4.00
2023-02-25T03:13:46.803Z,4.00
2023-02-25T03:16:25.638Z,4.00
2023-02-25T03:19:02.522Z,4.00
2023-02-25T03:21:39.914Z,4.10
2023-02-25T03:24:16.814Z,4.10
2023-02-25T03:26:45.344Z,4.10
2023-02-25T03:29:20.606Z,4.10
2023-02-25T03:31:56.511Z,4.10
2023-02-25T03:34:32.985Z,4.10
2023-02-25T03:37:05.743Z,4.10
2023-02-25T03:39:40.241Z,4.10
2023-02-25T03:42:14.671Z,4.10
2023-02-25T03:44:51.590Z,4.10
2023-02-25T03:47:22.679Z,4.10
2023-02-25T03:50:00.589Z,4.10
2023-02-25T03:52:30.185Z,4.10
2023-02-25T03:55:03.283Z,4.10
2023-02-25T03:57:38.657Z,4.10
2023-02-25T04:00:15.836Z,4.10
2023-02-25T04:02:46.058Z,4.10
2023-02-25T04:05:18.358Z,4.10
2023-02-25T04:07:47.526Z,4.10
2023-02-25T04:10:18.971Z,4.10
2023-02-25T04:12:47.380Z,4.10
2023-02-25T04:15:15.752Z,4.10
2023-02-25T04:17:45.116Z,4.00
2023-02-25T04:20:17.189Z,4.00
2023-02-25T04:22:45.795Z,3.90
2023-02-25T04:25:13.931Z,3.90
2023-02-25T04:27:42.101Z,3.90
2023-02-25T04:30:12.411Z,3.80
2023-02-25T04:32:46.602Z,3.90
2023-02-25T04:35:16.332Z,3.90
2023-02-25T04:37:45.333Z,3.90
2023-02-25T04:40:19.169Z,3.80
2023-02-25T04:42:49.285Z,3.90
2023-02-25T04:45:18.015Z,3.90
2023-02-25T04:47:46.225Z,3.90
2023-02-25T04:50:15.699Z,3.90
2023-02-25T04:52:43.804Z,4.00
2023-02-25T04:55:12.395Z,4.00
2023-02-25T04:57:42.294Z,4.00
2023-02-25T05:00:19.143Z,4.00
2023-02-25T05:02:49.253Z,4.00
2023-02-25T05:05:20.107Z,4.00
2023-02-25T05:07:48.578Z,4.00
2023-02-25T05:10:17.597Z,4.00
2023-02-25T05:12:45.856Z,4.00
2023-02-25T05:15:14.818Z,4.00
2023-02-25T05:17:43.107Z,4.00
2023-02-25T05:20:13.082Z,4.00
2023-02-25T05:22:43.356Z,4.00
2023-02-25T05:25:12.418Z,4.00
2023-02-25T05:27:40.623Z,4.00
2023-02-25T05:30:11.140Z,4.00
2023-02-25T05:32:39.909Z,3.90
2023-02-25T05:35:09.938Z,3.90
2023-02-25T05:37:40.145Z,3.90
2023-02-25T05:40:13.962Z,3.90
2023-02-25T05:42:42.320Z,3.90
2023-02-25T05:45:12.248Z,3.90
2023-02-25T05:47:40.416Z,3.90
2023-02-25T05:50:09.990Z,3.90
2023-02-25T05:52:38.765Z,3.80
2023-02-25T05:55:10.163Z,3.90
2023-02-25T05:57:38.413Z,3.90
2023-02-25T06:00:09.868Z,3.80
2023-02-25T06:02:41.665Z,3.90
2023-02-25T06:05:10.345Z,3.90
2023-02-25T06:07:38.564Z,3.90
2023-02-25T06:10:09.759Z,3.90
2023-02-25T06:12:38.203Z,3.80
2023-02-25T06:15:07.771Z,3.80
2023-02-25T06:17:36.254Z,3.80
2023-02-25T06:20:06.243Z,3.80
2023-02-25T06:22:34.497Z,3.80
2023-02-25T06:25:03.109Z,3.80
2023-02-25T06:27:32.675Z,3.80
2023-02-25T06:30:02.606Z,3.80
2023-02-25T06:32:30.897Z,3.80
2023-02-25T06:34:59.220Z,3.80
2023-02-25T06:37:27.519Z,3.80
2023-02-25T06:39:55.876Z,3.80
2023-02-25T06:42:24.281Z,3.80
2023-02-25T06:44:53.767Z,3.80
2023-02-25T06:47:23.817Z,3.90
2023-02-25T06:49:52.068Z,3.90
2023-02-25T06:52:20.231Z,3.90
2023-02-25T06:54:48.359Z,3.90
2023-02-25T06:57:16.477Z,3.90
2023-02-25T06:59:44.683Z,4.00
2023-02-25T07:02:15.159Z,4.00
2023-02-25T07:04:44.230Z,4.00
2023-02-25T07:07:12.560Z,4.10
2023-02-25T07:09:40.799Z,4.10
2023-02-25T07:12:08.987Z,4.20
2023-02-25T07:14:37.448Z,4.20
2023-02-25T07:17:06.008Z,4.30
2023-02-25T07:19:35.592Z,4.20
2023-02-25T07:22:05.195Z,4.30
2023-02-25T07:24:34.162Z,4.30
2023-02-25T07:27:02.337Z,4.30
2023-02-25T07:29:34.550Z,4.40
2023-02-25T07:32:02.817Z,4.40
2023-02-25T07:34:31.103Z,4.40
2023-02-25T07:37:00.964Z,4.50
2023-02-25T07:39:29.200Z,4.50
2023-02-25T07:42:00.311Z,4.60
2023-02-25T07:44:29.801Z,4.60
2023-02-25T07:46:57.996Z,4.60
2023-02-25T07:49:26.170Z,4.70
2023-02-25T07:51:54.499Z,4.70
2023-02-25T07:54:24.059Z,4.80
2023-02-25T07:56:52.352Z,4.80
2023-02-25T07:59:20.563Z,4.80
2023-02-25T08:01:48.730Z,4.90
2023-02-25T08:04:17.013Z,5.00
2023-02-25T08:06:47.055Z,5.00
2023-02-25T08:09:15.950Z,5.10
2023-02-25T08:11:46.123Z,5.10
2023-02-25T08:14:14.358Z,5.10
2023-02-25T08:16:42.568Z,5.10
2023-02-25T08:19:10.730Z,5.10
2023-02-25T08:21:40.553Z,5.00
2023-02-25T08:24:10.924Z,5.10
2023-02-25T08:26:39.528Z,5.10
2023-02-25T08:29:09.167Z,5.10
2023-02-25T08:31:37.554Z,5.20
2023-02-25T08:34:05.968Z,5.20
2023-02-25T08:36:36.104Z,5.20
2023-02-25T08:39:04.594Z,5.20
2023-02-25T08:41:33.045Z,5.20
2023-02-25T08:44:01.861Z,5.30
2023-02-25T08:46:34.182Z,5.30
2023-02-25T08:49:03.800Z,5.30
2023-02-25T08:51:35.032Z,5.40
2023-02-25T08:54:07.650Z,5.30
2023-02-25T08:56:37.192Z,5.30
2023-02-25T08:59:06.213Z,5.40
2023-02-25T09:01:45.592Z,5.40
2023-02-25T09:04:15.517Z,5.50
2023-02-25T09:06:47.169Z,5.50
2023-02-25T09:09:16.111Z,5.50
2023-02-25T09:11:44.934Z,5.60
2023-02-25T09:14:14.700Z,5.60
2023-02-25T09:16:44.897Z,5.50
2023-02-25T09:19:15.889Z,5.50
2023-02-25T09:21:48.023Z,5.60
2023-02-25T09:24:17.605Z,5.60
2023-02-25T09:26:45.896Z,5.70
2023-02-25T09:29:14.156Z,5.60
2023-02-25T09:31:44.145Z,5.70
2023-02-25T09:34:14.304Z,5.90
2023-02-25T09:36:43.350Z,5.90
2023-02-25T09:39:11.648Z,6.00
2023-02-25T09:41:53.419Z,6.20
2023-02-25T09:44:29.834Z,6.20
2023-02-25T09:47:13.257Z,6.30
2023-02-25T09:49:48.719Z,6.40
2023-02-25T09:52:24.799Z,6.50
2023-02-25T09:55:00.701Z,6.60
2023-02-25T09:57:31.695Z,6.60
2023-02-25T10:00:00.764Z,6.60
2023-02-25T10:02:39.086Z,6.60
2023-02-25T10:05:26.861Z,6.60
2023-02-25T10:08:09.410Z,6.70
2023-02-25T10:10:50.538Z,6.70
2023-02-25T10:13:34.080Z,6.80
2023-02-25T10:16:19.660Z,6.80
2023-02-25T10:19:11.498Z,6.80
2023-02-25T10:22:17.171Z,6.80
2023-02-25T10:24:51.113Z,6.80
2023-02-25T10:27:28.239Z,6.80
2023-02-25T10:30:04.578Z,6.90
2023-02-25T10:32:36.969Z,6.90
2023-02-25T10:35:18.422Z,6.90
2023-02-25T10:37:46.953Z,6.90
2023-02-25T10:40:19.306Z,7.00
2023-02-25T10:42:51.084Z,7.00
2023-02-25T10:45:25.131Z,6.90
2023-02-25T10:48:04.840Z,7.10
2023-02-25T10:50:44.887Z,7.20
2023-02-25T10:53:18.083Z,7.30
2023-02-25T10:55:55.059Z,7.40
2023-02-25T10:58:33.317Z,7.50
2023-02-25T11:01:08.225Z,7.60
2023-02-25T11:03:47.370Z,7.60
2023-02-25T11:06:25.226Z,7.50
2023-02-25T11:08:56.354Z,7.50
2023-02-25T11:11:27.133Z,7.30
2023-02-25T11:14:03.698Z,7.30
2023-02-25T11:16:36.402Z,7.30
2023-02-25T11:19:16.014Z,7.40
2023-02-25T11:21:47.181Z,7.40
2023-02-25T11:24:20.514Z,7.50
2023-02-25T11:26:52.981Z,7.50
2023-02-25T11:29:26.241Z,7.40
2023-02-25T11:32:01.162Z,7.40
2023-02-25T11:34:32.914Z,7.50
2023-02-25T11:37:27.858Z,7.50
2023-02-25T11:39:57.728Z,7.50
2023-02-25T11:42:30.136Z,7.60
2023-02-25T11:45:02.497Z,7.50
2023-02-25T11:47:34.642Z,7.40
2023-02-25T11:50:20.941Z,7.20
2023-02-25T11:53:01.890Z,7.10
2023-02-25T11:55:52.472Z,6.80
2023-02-25T11:58:34.081Z,6.60
2023-02-25T12:01:07.897Z,6.50
2023-02-25T12:04:16.801Z,6.80
2023-02-25T12:07:22.064Z,7.50
2023-02-25T12:10:37.990Z,8.50
2023-02-25T12:13:41.728Z,9.20
2023-02-25T12:16:59.942Z,9.30
2023-02-25T12:20:17.758Z,9.30
2023-02-25T12:23:26.499Z,9.00
2023-02-25T12:26:08.814Z,8.40
2023-02-25T12:29:09.032Z,7.90
2023-02-25T12:32:08.344Z,7.30
2023-02-25T12:35:21.106Z,7.00
2023-02-25T12:38:50.903Z,6.70
2023-02-25T12:41:46.998Z,6.60
2023-02-25T12:45:00.729Z,6.50
2023-02-25T12:47:54.169Z,6.50
2023-02-25T12:50:44.814Z,6.50
2023-02-25T12:53:32.093Z,6.60
2023-02-25T12:56:57.927Z,6.60
2023-02-25T12:59:53.585Z,6.40
2023-02-25T13:02:43.649Z,6.30
2023-02-25T13:05:37.096Z,6.00
2023-02-25T13:08:32.433Z,5.80
2023-02-25T13:11:14.086Z,5.70
2023-02-25T13:14:05.425Z,5.60
2023-02-25T13:16:54.495Z,5.40
2023-02-25T13:19:57.348Z,5.10
2023-02-25T13:22:50.632Z,4.90
2023-02-25T13:25:32.223Z,4.90
2023-02-25T13:28:24.333Z,4.90
2023-02-25T13:31:02.867Z,4.90
2023-02-25T13:34:03.512Z,4.90
2023-02-25T13:36:54.594Z,4.80
2023-02-25T13:39:51.177Z,4.80
2023-02-25T13:42:41.592Z,4.60
2023-02-25T13:45:47.858Z,4.40
2023-02-25T13:48:43.615Z,4.30
2023-02-25T13:51:34.317Z,4.30
2023-02-25T13:54:32.256Z,4.30
2023-02-25T13:57:21.059Z,4.40
2023-02-25T14:00:36.737Z,4.40
2023-02-25T14:03:39.756Z,4.50
2023-02-25T14:06:26.944Z,4.60
2023-02-25T14:09:18.321Z,4.70
2023-02-25T14:12:12.333Z,4.80
2023-02-25T14:15:23.572Z,4.80
2023-02-25T14:18:37.756Z,4.80
2023-02-25T14:22:02.105Z,4.80
2023-02-25T14:24:41.730Z,4.60
2023-02-25T14:27:28.500Z,4.60
2023-02-25T14:30:26.787Z,4.60
2023-02-25T14:33:28.074Z,4.60
2023-02-25T14:36:20.001Z,4.50
2023-02-25T14:39:20.444Z,4.50
2023-02-25T14:42:20.098Z,4.50
2023-02-25T14:44:59.574Z,4.40
2023-02-25T14:47:33.171Z,4.50
2023-02-25T14:50:11.115Z,4.60
2023-02-25T14:53:18.735Z,4.80
2023-02-25T14:56:48.823Z,4.90
2023-02-25T14:59:58.513Z,5.00
2023-02-25T15:02:49.362Z,5.10
2023-02-25T15:05:56.654Z,5.10
2023-02-25T15:09:11.896Z,5.10
2023-02-25T15:12:22.389Z,5.10
2023-02-25T15:15:23.015Z,5.20
2023-02-25T15:18:43.764Z,5.30
2023-02-25T15:21:49.081Z,5.40
2023-02-25T15:24:43.515Z,5.40
2023-02-25T15:27:50.435Z,5.50
2023-02-25T15:30:21.724Z,5.40
2023-02-25T15:33:16.799Z,5.40
2023-02-25T15:36:00.224Z,5.40
2023-02-25T15:38:43.971Z,5.40
2023-02-25T15:41:40.693Z,5.30
2023-02-25T15:44:35.673Z,5.30
2023-02-25T15:47:24.670Z,5.20
2023-02-25T15:49:54.782Z,5.20
2023-02-25T15:52:54.211Z,5.10
2023-02-25T15:55:40.715Z,5.00
2023-02-25T15:58:52.123Z,4.90
2023-02-25T16:01:46.084Z,4.80
2023-02-25T16:04:52.894Z,4.70
2023-02-25T16:07:25.100Z,4.60
2023-02-25T16:10:00.919Z,4.60
2023-02-25T16:12:30.793Z,4.60
2023-02-25T16:15:01.074Z,4.60
2023-02-25T16:17:35.175Z,4.60
2023-02-25T16:20:18.141Z,4.60
2023-02-25T16:22:48.599Z,4.50
2023-02-25T16:25:25.090Z,4.50
2023-02-25T16:28:02.299Z,4.50
2023-02-25T16:30:41.424Z,4.40
2023-02-25T16:33:23.130Z,4.30
2023-02-25T16:36:07.380Z,4.20
2023-02-25T16:38:44.713Z,4.10
2023-02-25T16:41:15.031Z,4.00
2023-02-25T16:43:45.804Z,3.90
2023-02-25T16:46:20.684Z,3.90
2023-02-25T16:48:56.675Z,3.80
2023-02-25T16:51:31.910Z,3.70
2023-02-25T16:54:08.388Z,3.60
2023-02-25T16:56:37.632Z,3.50
2023-02-25T16:59:18.340Z,3.40
2023-02-25T17:01:56.850Z,3.40
2023-02-25T17:04:31.302Z,3.30
2023-02-25T17:07:14.659Z,3.20
2023-02-25T17:09:46.922Z,3.20
2023-02-25T17:12:21.576Z,3.20
2023-02-25T17:14:53.157Z,3.10
2023-02-25T17:17:29.103Z,3.10
2023-02-25T17:20:00.640Z,3.10
2023-02-25T17:22:29.220Z,3.10
2023-02-25T17:24:59.603Z,3.10
2023-02-25T17:27:29.426Z,3.10
2023-02-25T17:29:58.043Z,3.20
2023-02-25T17:32:29.874Z,3.20
2023-02-25T17:35:04.961Z,3.10
2023-02-25T17:37:34.818Z,3.10
2023-02-25T17:40:08.130Z,2.90
2023-02-25T17:42:38.876Z,2.90
2023-02-25T17:45:41.902Z,2.80
2023-02-25T17:48:17.998Z,2.70
2023-02-25T17:50:55.789Z,2.60
2023-02-25T17:53:40.200Z,2.50
2023-02-25T17:56:23.062Z,2.40
2023-02-25T17:58:53.505Z,2.40
2023-02-25T18:01:27.030Z,2.30
2023-02-25T18:03:56.616Z,2.30
2023-02-25T18:06:44.758Z,2.20
2023-02-25T18:09:40.909Z,2.20
2023-02-25T18:12:23.564Z,2.10
2023-02-25T18:14:57.893Z,2.10
2023-02-25T18:17:30.135Z,2.00
2023-02-25T18:20:01.885Z,2.00
2023-02-25T18:22:40.502Z,2.00
2023-02-25T18:25:31.483Z,2.10
2023-02-25T18:27:59.984Z,2.10
2023-02-25T18:30:30.664Z,2.10
2023-02-25T18:33:00.224Z,2.20
2023-02-25T18:35:32.157Z,2.20
2023-02-25T18:38:03.494Z,2.30
2023-02-25T18:40:35.749Z,2.30
2023-02-25T18:43:05.913Z,2.30
2023-02-25T18:45:35.932Z,2.30
2023-02-25T18:48:04.132Z,2.40
2023-02-25T18:50:34.236Z,2.40
2023-02-25T18:53:04.462Z,2.50
2023-02-25T18:55:34.659Z,2.40
2023-02-25T18:58:04.723Z,2.40
2023-02-25T19:00:33.461Z,2.40
2023-02-25T19:03:05.201Z,2.40
2023-02-25T19:05:34.463Z,2.40
2023-02-25T19:08:04.103Z,2.40
2023-02-25T19:10:34.143Z,2.40
2023-02-25T19:13:06.166Z,2.40
2023-02-25T19:15:35.217Z,2.40
2023-02-25T19:18:03.423Z,2.30
2023-02-25T19:20:31.671Z,2.40
2023-02-25T19:22:59.925Z,2.40
2023-02-25T19:25:34.961Z,2.40
2023-02-25T19:28:05.138Z,2.30
2023-02-25T19:30:36.938Z,2.30
2023-02-25T19:33:05.767Z,2.30
2023-02-25T19:35:37.101Z,2.30
2023-02-25T19:38:07.089Z,2.30
2023-02-25T19:40:37.653Z,2.30
2023-02-25T19:43:06.276Z,2.30
2023-02-25T19:45:35.279Z,2.30
2023-02-25T19:48:04.465Z,2.30
2023-02-25T19:50:34.795Z,2.30
2023-02-25T19:53:05.637Z,2.30
2023-02-25T19:55:34.231Z,2.30
2023-02-25T19:58:03.829Z,2.30
2023-02-25T20:00:32.742Z,2.30
2023-02-25T20:03:01.005Z,2.30
2023-02-25T20:05:29.405Z,2.30
2023-02-25T20:07:57.760Z,2.30
2023-02-25T20:10:26.227Z,2.30
2023-02-25T20:12:54.405Z,2.30
2023-02-25T20:15:23.959Z,2.30
2023-02-25T20:17:54.905Z,2.30
2023-02-25T20:20:23.821Z,2.20
2023-02-25T20:22:52.351Z,2.20
2023-02-25T20:25:20.767Z,2.20
2023-02-25T20:27:48.946Z,2.20
2023-02-25T20:30:18.690Z,2.20
2023-02-25T20:32:48.306Z,2.20
2023-02-25T20:35:21.355Z,2.20
2023-02-25T20:38:08.316Z,2.20
2023-02-25T20:40:37.073Z,2.20
2023-02-25T20:43:05.698Z,2.20
2023-02-25T20:45:35.367Z,2.10
2023-02-25T20:48:05.432Z,2.10
2023-02-25T20:50:34.670Z,2.10
2023-02-25T20:53:03.298Z,2.00
2023-02-25T20:55:32.131Z,2.00
2023-02-25T20:58:00.616Z,2.00
2023-02-25T21:00:29.297Z,2.00
2023-02-25T21:02:58.424Z,1.90
2023-02-25T21:05:28.491Z,1.90
2023-02-25T21:07:57.142Z,1.90
2023-02-25T21:10:25.756Z,1.80
2023-02-25T21:12:53.983Z,1.80
2023-02-25T21:15:22.166Z,1.80
2023-02-25T21:17:50.394Z,1.80
2023-02-25T21:20:18.795Z,1.80
2023-02-25T21:22:49.376Z,1.80
2023-02-25T21:25:17.801Z,1.80
2023-02-25T21:27:46.003Z,1.70
2023-02-25T21:30:14.972Z,1.70
2023-02-25T21:32:43.147Z,1.70
2023-02-25T21:35:11.626Z,1.70
2023-02-25T21:37:39.754Z,1.70
2023-02-25T21:40:11.534Z,1.60
2023-02-25T21:42:39.690Z,1.60
2023-02-25T21:45:10.866Z,1.60
2023-02-25T21:47:39.100Z,1.60
2023-02-25T21:50:09.521Z,1.60
2023-02-25T21:52:37.885Z,1.60
2023-02-25T21:55:07.692Z,1.60
2023-02-25T21:57:38.363Z,1.60
2023-02-25T22:00:11.012Z,1.60
2023-02-25T22:02:42.039Z,1.60
2023-02-25T22:05:11.155Z,1.60
2023-02-25T22:07:39.337Z,1.60
2023-02-25T22:10:08.878Z,1.60
2023-02-25T22:12:38.788Z,1.50
2023-02-25T22:15:08.618Z,1.50
2023-02-25T22:17:37.878Z,1.50
2023-02-25T22:20:07.581Z,1.60
2023-02-25T22:22:37.890Z,1.50
2023-02-25T22:25:07.420Z,1.50
2023-02-25T22:27:35.682Z,1.50
2023-02-25T22:30:06.479Z,1.50
2023-02-25T22:32:37.623Z,1.50
2023-02-25T22:35:07.607Z,1.40
2023-02-25T22:37:36.029Z,1.40
2023-02-25T22:40:04.734Z,1.40
2023-02-25T22:42:32.950Z,1.30
2023-02-25T22:45:01.275Z,1.30
2023-02-25T22:47:30.894Z,1.30
2023-02-25T22:49:59.060Z,1.20
2023-02-25T22:52:27.371Z,1.20
2023-02-25T22:54:55.651Z,1.10
2023-02-25T22:57:23.904Z,1.10
2023-02-25T22:59:52.180Z,1.10
2023-02-25T23:02:20.333Z,1.00
2023-02-25T23:04:49.981Z,1.00
2023-02-25T23:07:18.246Z,1.00
2023-02-25T23:09:46.824Z,1.00
2023-02-25T23:12:16.700Z,0.90
2023-02-25T23:14:44.931Z,0.90
2023-02-25T23:17:13.082Z,0.90
2023-02-25T23:19:41.482Z,0.90
2023-02-25T23:22:18.182Z,0.90
2023-02-25T23:24:46.478Z,0.80
2023-02-25T23:27:15.274Z,0.80
2023-02-25T23:29:43.873Z,0.80
2023-02-25T23:32:12.053Z,0.80
2023-02-25T23:34:40.605Z,0.80
2023-02-25T23:37:10.088Z,0.80
2023-02-25T23:39:39.793Z,0.70
2023-02-25T23:42:09.602Z,0.70
2023-02-25T23:44:37.934Z,0.70
2023-02-25T23:47:06.423Z,0.70
2023-02-25T23:49:34.609Z,0.70
2023-02-25T23:52:02.753Z,0.70
2023-02-25T23:54:32.489Z,0.80
2023-02-25T23:57:00.855Z,0.80
2023-02-25T23:59:29.085Z,0.80
